Time;durP1;ratioP1;P1;durP2;ratioP2;P2;SDS_P1;SDS_P2;PMS_P1;PMS_P2;Temp;Humidity;BMP_temperature;BMP_pressure;BME280_temperature;BME280_humidity;BME280_pressure;Samples;Min_cycle;Max_cycle;Signal;HPM_P1;HPM_P2
2022/03/12 00:00:26;;;;;;;125.47;38.83;;;4.60;99.90;;;;;;5010151;28;20045;-60
2022/03/12 00:03:32;;;;;;;172.02;49.42;;;4.50;99.90;;;;;;5009897;28;20065;-59
2022/03/12 00:06:36;;;;;;;157.65;48.00;;;4.50;99.90;;;;;;5010395;28;20045;-60
2022/03/12 00:09:41;;;;;;;191.02;53.13;;;4.50;99.90;;;;;;5010490;28;20499;-60
2022/03/12 00:12:45;;;;;;;115.13;36.25;;;4.50;99.90;;;;;;5009154;28;20057;-62
2022/03/12 00:15:52;;;;;;;135.02;36.90;;;4.40;99.90;;;;;;5010096;28;20080;-60
2022/03/12 00:18:58;;;;;;;88.93;28.85;;;4.30;99.90;;;;;;5009976;28;20057;-59
2022/03/12 00:22:09;;;;;;;87.68;34.17;;;4.30;99.90;;;;;;5008967;28;20049;-60
2022/03/12 00:25:14;;;;;;;98.78;32.22;;;4.30;99.90;;;;;;5022686;28;20037;-60
2022/03/12 00:28:19;;;;;;;142.13;43.90;;;4.20;99.90;;;;;;5013386;28;20041;-62
2022/03/12 00:31:26;;;;;;;148.00;46.58;;;4.10;99.90;;;;;;5013511;28;20037;-62
2022/03/12 00:34:30;;;;;;;156.65;44.30;;;4.20;99.90;;;;;;5013264;28;20061;-60
2022/03/12 00:37:34;;;;;;;176.63;52.55;;;4.10;99.90;;;;;;5013305;28;20508;-60
2022/03/12 00:40:38;;;;;;;164.73;45.90;;;4.10;99.90;;;;;;5012959;28;20041;-59
2022/03/12 00:43:43;;;;;;;175.77;50.65;;;4.10;99.90;;;;;;5013285;28;20052;-60
2022/03/12 00:46:48;;;;;;;266.25;72.07;;;4.00;99.90;;;;;;5013682;28;20068;-60
2022/03/12 00:49:54;;;;;;;186.43;54.47;;;4.00;99.90;;;;;;5013309;28;20041;-59
2022/03/12 00:52:58;;;;;;;169.32;50.72;;;4.00;99.90;;;;;;5012574;28;20060;-59
2022/03/12 00:56:04;;;;;;;126.85;43.83;;;4.00;99.90;;;;;;5013606;28;20052;-60
2022/03/12 00:59:08;;;;;;;113.95;38.92;;;3.90;99.90;;;;;;5013019;28;20045;-59
2022/03/12 01:02:15;;;;;;;29.88;14.85;;;3.80;99.90;;;;;;5012741;28;20065;-60
2022/03/12 01:05:39;;;;;;;27.52;13.38;;;3.80;99.90;;;;;;5013101;28;20041;-62
2022/03/12 01:08:44;;;;;;;34.63;13.73;;;3.70;99.90;;;;;;5012819;28;20053;-61
2022/03/12 01:11:48;;;;;;;31.20;13.70;;;3.80;99.90;;;;;;5012724;28;20053;-60
2022/03/12 01:14:52;;;;;;;26.23;13.93;;;3.80;99.90;;;;;;5013057;28;20049;-63
2022/03/12 01:17:56;;;;;;;32.10;15.80;;;3.80;99.90;;;;;;5013356;28;20049;-60
2022/03/12 01:21:17;;;;;;;30.75;16.35;;;3.70;99.90;;;;;;5012706;28;20049;-59
2022/03/12 01:24:21;;;;;;;38.03;18.52;;;3.70;99.90;;;;;;5012718;28;20052;-59
2022/03/12 01:27:25;;;;;;;30.98;16.52;;;3.70;99.90;;;;;;5012900;28;20041;-63
2022/03/12 01:30:31;;;;;;;40.55;18.38;;;3.80;99.90;;;;;;5012592;28;20053;-62
2022/03/12 01:33:35;;;;;;;34.53;17.60;;;3.80;99.90;;;;;;5012479;28;20053;-59
2022/03/12 01:36:39;;;;;;;33.38;17.42;;;3.90;99.90;;;;;;5012324;28;20053;-60
2022/03/12 01:39:43;;;;;;;50.08;20.90;;;3.80;99.90;;;;;;5012298;28;20496;-60
2022/03/12 01:42:50;;;;;;;119.35;42.38;;;3.70;99.90;;;;;;5011813;28;20044;-60
2022/03/12 01:45:54;;;;;;;154.35;45.28;;;3.60;99.90;;;;;;5012476;28;20041;-60
2022/03/12 01:48:59;;;;;;;161.70;48.30;;;3.50;99.90;;;;;;5012515;28;20100;-61
2022/03/12 01:52:07;;;;;;;171.68;51.88;;;3.40;99.90;;;;;;5012084;28;20287;-60
2022/03/12 01:55:11;;;;;;;164.90;48.95;;;3.40;99.90;;;;;;5012165;28;20053;-60
2022/03/12 01:58:15;;;;;;;140.25;44.92;;;3.30;99.90;;;;;;5012252;28;20511;-60
2022/03/12 02:01:20;;;;;;;100.00;33.95;;;3.30;99.90;;;;;;5011362;28;20405;-59
2022/03/12 02:04:25;;;;;;;62.10;24.60;;;3.20;99.90;;;;;;5012041;28;20053;-60
2022/03/12 02:07:29;;;;;;;69.93;25.73;;;3.30;99.90;;;;;;5012154;28;20049;-60
2022/03/12 02:10:34;;;;;;;220.02;61.58;;;3.30;99.90;;;;;;5011457;28;20049;-60
2022/03/12 02:13:39;;;;;;;147.98;45.65;;;3.30;99.90;;;;;;5010805;28;20049;-59
2022/03/12 02:16:47;;;;;;;86.97;32.08;;;3.30;99.90;;;;;;5011548;28;20544;-60
2022/03/12 02:19:51;;;;;;;188.68;57.45;;;3.30;99.90;;;;;;5011878;28;20053;-60
2022/03/12 02:22:55;;;;;;;136.75;43.22;;;3.30;99.90;;;;;;5011721;28;20041;-60
2022/03/12 02:26:02;;;;;;;94.95;34.20;;;3.20;99.90;;;;;;5011741;28;20396;-60
2022/03/12 02:29:09;;;;;;;146.80;45.33;;;3.20;99.90;;;;;;5011703;28;20064;-60
2022/03/12 02:32:14;;;;;;;87.90;34.97;;;3.10;99.90;;;;;;5011266;28;20279;-60
2022/03/12 02:35:24;;;;;;;49.10;23.50;;;3.10;99.90;;;;;;5011567;28;20481;-60
2022/03/12 02:38:28;;;;;;;43.40;19.83;;;3.00;99.90;;;;;;5011758;28;20059;-60
2022/03/12 02:41:34;;;;;;;39.53;18.90;;;3.10;99.90;;;;;;5010690;28;20045;-60
2022/03/12 02:44:38;;;;;;;53.05;24.42;;;3.30;99.90;;;;;;5011773;28;20037;-60
2022/03/12 02:47:43;;;;;;;37.65;17.73;;;3.30;99.90;;;;;;5010083;28;20053;-60
2022/03/12 02:50:47;;;;;;;40.25;19.58;;;3.40;99.90;;;;;;5010962;28;20511;-60
2022/03/12 02:53:56;;;;;;;51.83;21.73;;;3.40;99.90;;;;;;5011443;28;20049;-60
2022/03/12 02:57:03;;;;;;;71.35;26.77;;;3.30;99.90;;;;;;5011027;28;20045;-60
2022/03/12 03:00:08;;;;;;;195.57;60.10;;;3.30;99.90;;;;;;5010846;28;20049;-60
2022/03/12 03:03:12;;;;;;;135.32;44.20;;;3.20;99.90;;;;;;5011014;28;20070;-60
2022/03/12 03:06:18;;;;;;;143.50;44.35;;;3.20;99.90;;;;;;5010871;28;20094;-60
2022/03/12 03:09:22;;;;;;;62.58;23.30;;;3.20;99.90;;;;;;5011109;28;20083;-60
2022/03/12 03:12:26;;;;;;;121.45;39.03;;;3.20;99.90;;;;;;5010368;28;20050;-61
2022/03/12 03:15:30;;;;;;;91.18;31.55;;;3.20;99.90;;;;;;5009648;28;20531;-60
2022/03/12 03:18:39;;;;;;;115.45;39.63;;;3.00;99.90;;;;;;5010740;28;20052;-60
2022/03/12 03:21:43;;;;;;;141.73;43.53;;;3.00;99.90;;;;;;5010157;28;20045;-61
2022/03/12 03:24:47;;;;;;;184.30;53.75;;;2.90;99.90;;;;;;5010699;28;20041;-62
2022/03/12 03:27:51;;;;;;;170.30;49.88;;;2.80;99.90;;;;;;5010103;28;20049;-60
2022/03/12 03:30:57;;;;;;;131.00;42.42;;;2.70;99.90;;;;;;5010180;28;20065;-60
2022/03/12 03:34:03;;;;;;;83.45;28.02;;;2.60;99.90;;;;;;5010411;28;20048;-60
2022/03/12 03:37:08;;;;;;;79.70;27.52;;;2.60;99.90;;;;;;5010597;28;20056;-60
2022/03/12 03:40:12;;;;;;;54.10;21.10;;;2.60;99.90;;;;;;5010234;28;20057;-60
2022/03/12 03:43:19;;;;;;;57.03;23.35;;;2.60;99.90;;;;;;5010064;28;20456;-60
2022/03/12 03:46:23;;;;;;;55.70;22.55;;;2.60;99.90;;;;;;5010494;28;20504;-60
2022/03/12 03:49:27;;;;;;;100.25;31.00;;;2.50;99.90;;;;;;5010347;28;20057;-59
2022/03/12 03:52:31;;;;;;;98.78;33.67;;;2.50;99.90;;;;;;5009649;28;20057;-60
2022/03/12 03:55:35;;;;;;;98.05;31.05;;;2.60;99.90;;;;;;5009864;28;20045;-60
2022/03/12 03:58:39;;;;;;;42.60;18.65;;;2.60;99.90;;;;;;5011109;28;20052;-60
2022/03/12 04:01:47;;;;;;;42.80;17.33;;;2.70;99.90;;;;;;5014054;28;20052;-60
2022/03/12 04:04:53;;;;;;;52.67;20.20;;;2.70;99.90;;;;;;5024542;28;20037;-59
2022/03/12 04:07:59;;;;;;;97.65;31.40;;;2.70;99.90;;;;;;5014199;28;20405;-60
2022/03/12 04:11:05;;;;;;;287.30;74.57;;;2.70;99.90;;;;;;5013890;28;20499;-60
2022/03/12 04:14:09;;;;;;;198.98;56.95;;;2.60;99.90;;;;;;5013965;28;20049;-60
2022/03/12 04:17:16;;;;;;;186.93;54.60;;;2.40;99.90;;;;;;5014250;28;20052;-59
2022/03/12 04:20:22;;;;;;;169.25;45.85;;;2.40;99.90;;;;;;5013878;28;20044;-60
2022/03/12 04:23:27;;;;;;;152.55;42.55;;;2.30;99.90;;;;;;5014125;28;20634;-60
2022/03/12 04:26:33;;;;;;;106.40;34.03;;;2.30;99.90;;;;;;5012948;28;20041;-60
2022/03/12 04:29:38;;;;;;;61.78;25.40;;;2.20;99.90;;;;;;5024055;28;20061;-59
2022/03/12 04:32:42;;;;;;;46.28;21.10;;;2.20;99.90;;;;;;5013381;28;20511;-60
2022/03/12 04:35:48;;;;;;;57.13;23.88;;;2.20;99.90;;;;;;5013534;28;20400;-60
2022/03/12 04:38:53;;;;;;;62.17;24.55;;;2.20;99.90;;;;;;5013617;28;20041;-60
2022/03/12 04:41:59;;;;;;;87.10;31.40;;;2.20;99.90;;;;;;5013365;28;20045;-60
2022/03/12 04:45:03;;;;;;;90.10;30.73;;;2.20;99.90;;;;;;5023926;28;20463;-60
2022/03/12 04:48:07;;;;;;;116.15;34.22;;;2.20;99.90;;;;;;5013708;28;20424;-60
2022/03/12 04:51:11;;;;;;;92.72;28.63;;;2.20;99.90;;;;;;5012876;28;20049;-60
2022/03/12 04:54:16;;;;;;;64.78;23.60;;;2.20;99.90;;;;;;5013353;28;20040;-59
2022/03/12 04:57:20;;;;;;;63.15;24.38;;;2.20;99.90;;;;;;5013192;28;20400;-60
2022/03/12 05:00:27;;;;;;;109.75;36.08;;;2.20;99.90;;;;;;5013106;28;20424;-60
2022/03/12 05:03:31;;;;;;;128.18;38.97;;;2.20;99.90;;;;;;5013326;28;20053;-60
2022/03/12 05:06:35;;;;;;;114.25;36.38;;;2.20;99.90;;;;;;5012876;28;20401;-60
2022/03/12 05:09:40;;;;;;;149.38;44.10;;;2.20;99.90;;;;;;5012517;28;20496;-59
2022/03/12 05:12:50;;;;;;;148.43;41.85;;;2.20;99.90;;;;;;5012631;28;20041;-60
2022/03/12 05:15:57;;;;;;;155.65;47.08;;;2.20;99.90;;;;;;5012747;28;20049;-59
2022/03/12 05:19:06;;;;;;;127.90;38.25;;;2.10;99.90;;;;;;5012953;28;20041;-60
2022/03/12 05:22:11;;;;;;;121.05;34.25;;;2.10;99.90;;;;;;5011468;28;20414;-60
2022/03/12 05:25:18;;;;;;;142.60;40.60;;;2.10;99.90;;;;;;5012799;28;20042;-60
2022/03/12 05:28:26;;;;;;;123.38;36.28;;;2.10;99.90;;;;;;5012467;28;20397;-60
2022/03/12 05:31:32;;;;;;;90.72;30.60;;;2.00;99.90;;;;;;5012218;28;20041;-60
2022/03/12 05:34:36;;;;;;;108.55;33.35;;;2.00;99.90;;;;;;5012142;28;20520;-60
2022/03/12 05:37:44;;;;;;;95.50;29.98;;;2.00;99.90;;;;;;5011930;28;20045;-60
2022/03/12 05:40:48;;;;;;;69.50;27.45;;;2.00;99.90;;;;;;5011919;28;20409;-60
2022/03/12 05:43:52;;;;;;;101.65;32.97;;;2.00;99.90;;;;;;5012761;28;20071;-60
2022/03/12 05:46:58;;;;;;;90.68;29.00;;;2.20;99.90;;;;;;5012167;28;20056;-60
2022/03/12 05:50:09;;;;;;;69.45;22.63;;;2.30;99.90;;;;;;5012565;28;20520;-61
2022/03/12 05:53:16;;;;;;;72.20;23.10;;;2.40;99.90;;;;;;5012775;28;20397;-60
2022/03/12 05:56:20;;;;;;;80.50;26.35;;;2.50;99.90;;;;;;5012203;28;20432;-60
2022/03/12 05:59:25;;;;;;;64.07;21.95;;;2.60;99.90;;;;;;5012818;28;20052;-60
2022/03/12 06:02:30;;;;;;;47.92;17.45;;;2.80;99.90;;;;;;5012286;28;20040;-60
2022/03/12 06:05:40;;;;;;;33.67;16.35;;;2.90;99.90;;;;;;5012771;28;20045;-60
2022/03/12 06:08:44;;;;;;;31.08;15.13;;;3.20;99.90;;;;;;5012114;28;20041;-60
2022/03/12 06:11:52;;;;;;;29.17;13.40;;;3.20;99.90;;;;;;5011661;28;20072;-60
2022/03/12 06:14:57;;;;;;;34.60;15.68;;;3.30;99.90;;;;;;5012130;28;20046;-60
2022/03/12 06:18:03;;;;;;;56.53;22.13;;;3.50;99.90;;;;;;5011930;28;20068;-59
2022/03/12 06:21:07;;;;;;;42.03;18.40;;;3.80;99.90;;;;;;5011245;28;20041;-61
2022/03/12 06:24:12;;;;;;;39.85;17.25;;;4.40;99.90;;;;;;5011715;28;20065;-60
2022/03/12 06:27:17;;;;;;;36.85;16.65;;;4.80;99.90;;;;;;5011617;28;20037;-60
2022/03/12 06:30:24;;;;;;;32.33;14.75;;;5.40;99.90;;;;;;5011707;28;20049;-61
2022/03/12 06:33:31;;;;;;;27.48;13.05;;;6.00;99.90;;;;;;5011018;28;20052;-60
2022/03/12 06:36:40;;;;;;;26.20;13.32;;;7.10;99.90;;;;;;5011183;28;20045;-60
2022/03/12 06:39:45;;;;;;;24.27;13.27;;;8.40;99.90;;;;;;5011410;28;20077;-60
2022/03/12 06:42:53;;;;;;;21.45;12.52;;;9.80;98.50;;;;;;5011154;28;20044;-62
2022/03/12 06:45:58;;;;;;;21.17;12.48;;;11.10;95.10;;;;;;5011518;28;20041;-61
2022/03/12 06:49:04;;;;;;;26.77;12.88;;;12.30;92.40;;;;;;5010947;28;20041;-61
2022/03/12 06:52:08;;;;;;;20.20;11.75;;;13.40;90.00;;;;;;5011060;28;20389;-60
2022/03/12 06:55:12;;;;;;;23.17;13.95;;;14.70;85.80;;;;;;5011041;28;20389;-61
2022/03/12 06:58:17;;;;;;;20.33;11.20;;;15.70;79.00;;;;;;5010962;28;20065;-61
2022/03/12 07:01:21;;;;;;;18.35;11.95;;;16.60;75.00;;;;;;5010612;28;20052;-61
2022/03/12 07:04:27;;;;;;;19.15;12.23;;;16.70;70.70;;;;;;5011017;28;20393;-60
2022/03/12 07:07:31;;;;;;;15.55;10.93;;;17.30;69.30;;;;;;5010899;28;20045;-61
2022/03/12 07:10:35;;;;;;;17.02;11.10;;;16.50;65.70;;;;;;5010239;28;20049;-60
2022/03/12 07:13:39;;;;;;;16.92;10.35;;;15.10;67.00;;;;;;5010643;28;20080;-62
2022/03/12 07:16:44;;;;;;;15.48;10.68;;;16.30;68.00;;;;;;5010882;28;20491;-61
2022/03/12 07:19:48;;;;;;;14.63;10.50;;;17.10;64.60;;;;;;5010897;28;20045;-61
2022/03/12 07:22:53;;;;;;;14.88;9.95;;;15.70;65.50;;;;;;5010348;28;20053;-61
2022/03/12 07:25:57;;;;;;;15.45;10.35;;;16.20;66.30;;;;;;5010596;28;20049;-62
2022/03/12 07:29:03;;;;;;;16.50;10.95;;;16.80;65.20;;;;;;5010335;28;20114;-61
2022/03/12 07:32:07;;;;;;;15.18;10.50;;;17.50;64.50;;;;;;5010212;28;20049;-61
2022/03/12 07:35:15;;;;;;;14.15;10.05;;;17.60;63.90;;;;;;5010550;28;20044;-60
2022/03/12 07:38:19;;;;;;;14.93;10.15;;;16.40;63.20;;;;;;5010574;28;20048;-60
2022/03/12 07:41:24;;;;;;;17.27;11.07;;;16.70;63.30;;;;;;5010148;28;20500;-62
2022/03/12 07:44:28;;;;;;;16.70;11.98;;;17.00;64.00;;;;;;5010406;28;20045;-62
2022/03/12 07:47:34;;;;;;;18.73;11.30;;;17.10;63.90;;;;;;5010113;28;20044;-59
2022/03/12 07:50:39;;;;;;;17.95;12.75;;;18.40;62.80;;;;;;5009661;28;20048;-60
2022/03/12 07:53:45;;;;;;;20.30;11.40;;;18.70;62.80;;;;;;5010351;28;20495;-60
2022/03/12 07:56:49;;;;;;;19.00;11.10;;;18.80;61.70;;;;;;5010404;28;20052;-60
2022/03/12 07:59:53;;;;;;;15.55;10.98;;;17.70;60.30;;;;;;5010282;28;20077;-60
2022/03/12 08:02:58;;;;;;;14.90;11.63;;;18.40;60.80;;;;;;5009974;28;20049;-61
2022/03/12 08:06:04;;;;;;;14.43;10.43;;;18.60;59.60;;;;;;5010102;28;20145;-61
2022/03/12 08:09:08;;;;;;;16.42;11.63;;;20.20;58.70;;;;;;5020454;28;20413;-60
2022/03/12 08:12:15;;;;;;;17.60;10.25;;;21.60;58.10;;;;;;5009777;28;20065;-60
2022/03/12 08:15:19;;;;;;;14.30;9.68;;;22.80;55.90;;;;;;5009917;28;20061;-60
2022/03/12 08:18:24;;;;;;;13.00;10.45;;;23.40;55.20;;;;;;5010351;28;20041;-60
2022/03/12 08:21:30;;;;;;;12.30;9.57;;;24.30;54.20;;;;;;5009519;28;20053;-61
2022/03/12 08:24:34;;;;;;;12.65;9.68;;;24.10;53.00;;;;;;5010462;28;20048;-61
2022/03/12 08:27:39;;;;;;;13.00;10.48;;;24.40;52.40;;;;;;5009977;28;20049;-61
2022/03/12 08:30:43;;;;;;;15.13;11.02;;;24.20;51.90;;;;;;5009770;28;20065;-60
2022/03/12 08:33:48;;;;;;;14.55;10.57;;;23.60;52.30;;;;;;5010355;28;20516;-60
2022/03/12 08:36:52;;;;;;;13.57;10.45;;;22.50;53.30;;;;;;5010042;28;20508;-60
2022/03/12 08:39:56;;;;;;;23.90;11.73;;;21.70;52.00;;;;;;5009871;28;20061;-60
2022/03/12 08:43:00;;;;;;;15.25;10.52;;;22.10;53.20;;;;;;5010243;28;20053;-60
2022/03/12 08:46:07;;;;;;;15.85;11.40;;;23.10;52.80;;;;;;5011763;28;20064;-61
2022/03/12 08:49:11;;;;;;;14.95;11.25;;;23.70;51.80;;;;;;5013577;28;20041;-61
2022/03/12 08:52:16;;;;;;;17.02;10.48;;;25.10;51.30;;;;;;5013059;28;20053;-61
2022/03/12 08:55:20;;;;;;;13.57;10.40;;;25.50;50.70;;;;;;5013790;28;20053;-61
2022/03/12 08:58:24;;;;;;;12.65;10.73;;;25.50;49.60;;;;;;5013518;28;20448;-61
2022/03/12 09:01:29;;;;;;;18.42;9.90;;;25.80;49.40;;;;;;5013106;28;20052;-60
2022/03/12 09:04:34;;;;;;;10.90;8.65;;;25.60;49.80;;;;;;5013958;28;20053;-61
2022/03/12 09:07:39;;;;;;;12.95;9.35;;;27.50;48.40;;;;;;5013466;28;20041;-61
2022/03/12 09:10:44;;;;;;;13.30;10.07;;;28.10;47.00;;;;;;5012890;28;20054;-61
2022/03/12 09:13:50;;;;;;;10.70;9.52;;;28.60;46.50;;;;;;5013385;28;20057;-61
2022/03/12 09:16:54;;;;;;;11.13;9.65;;;28.20;45.60;;;;;;5013227;28;20057;-60
2022/03/12 09:19:58;;;;;;;12.90;9.82;;;27.70;45.60;;;;;;5012963;28;20068;-60
2022/03/12 09:23:02;;;;;;;13.32;9.68;;;28.30;45.90;;;;;;5011792;28;20114;-61
2022/03/12 09:26:06;;;;;;;12.73;9.43;;;28.60;45.10;;;;;;5012838;28;20053;-60
2022/03/12 09:29:11;;;;;;;14.45;10.68;;;28.30;44.50;;;;;;5012239;28;20053;-61
2022/03/12 09:32:15;;;;;;;16.17;10.20;;;26.30;43.70;;;;;;5011873;28;20052;-60
2022/03/12 09:35:20;;;;;;;16.80;10.77;;;24.90;46.90;;;;;;5011837;28;20061;-60
2022/03/12 09:38:25;;;;;;;14.32;10.18;;;26.20;46.40;;;;;;5012201;28;20052;-61
2022/03/12 09:41:29;;;;;;;15.65;9.85;;;27.40;44.50;;;;;;5012016;28;20097;-61
2022/03/12 09:44:32;;;;;;;14.95;10.98;;;27.40;44.50;;;;;;5012296;28;20049;-61
2022/03/12 09:47:36;;;;;;;13.93;9.98;;;28.90;44.60;;;;;;5011825;28;20492;-61
2022/03/12 09:50:40;;;;;;;13.43;9.95;;;30.40;44.20;;;;;;5011671;28;20056;-61
2022/03/12 09:53:44;;;;;;;11.52;9.55;;;31.60;43.60;;;;;;5012366;28;20057;-62
2022/03/12 09:56:48;;;;;;;14.18;10.02;;;32.50;43.10;;;;;;5012536;28;20053;-61
2022/03/12 09:59:52;;;;;;;9.95;8.43;;;32.80;43.20;;;;;;5011943;28;20307;-62
2022/03/12 10:02:56;;;;;;;11.80;9.45;;;32.60;42.40;;;;;;5012264;28;20052;-61
2022/03/12 10:06:00;;;;;;;11.88;9.70;;;31.50;42.10;;;;;;5012195;28;20248;-62
2022/03/12 10:09:04;;;;;;;12.80;10.93;;;31.60;42.70;;;;;;5012041;28;20045;-61
2022/03/12 10:12:09;;;;;;;15.68;11.50;;;27.20;42.60;;;;;;5011769;28;20068;-61
2022/03/12 10:15:15;;;;;;;19.00;11.00;;;27.30;44.20;;;;;;5012017;28;20072;-61
2022/03/12 10:18:20;;;;;;;16.58;12.15;;;28.50;44.60;;;;;;5010831;28;20048;-61
2022/03/12 10:21:27;;;;;;;14.13;11.35;;;25.90;43.50;;;;;;5011007;28;20049;-61
2022/03/12 10:24:31;;;;;;;16.80;11.85;;;26.80;44.10;;;;;;5011909;28;20060;-61
2022/03/12 10:27:36;;;;;;;16.13;11.43;;;29.20;44.00;;;;;;5011692;28;20045;-61
2022/03/12 10:30:40;;;;;;;15.05;10.88;;;28.40;42.90;;;;;;5010966;28;20061;-61
2022/03/12 10:33:44;;;;;;;14.93;9.90;;;29.70;43.00;;;;;;5010735;28;20053;-62
2022/03/12 10:36:53;;;;;;;17.48;10.82;;;28.80;43.20;;;;;;5011835;28;20053;-62
2022/03/12 10:40:19;;;;;;;13.93;9.68;;;29.20;43.70;;;;;;5011338;28;20060;-61
2022/03/12 10:43:29;;;;;;;14.30;9.95;;;30.20;43.30;;;;;;5010754;28;20049;-61
2022/03/12 10:46:35;;;;;;;12.35;9.65;;;30.60;42.40;;;;;;5011351;28;20041;-61
2022/03/12 10:49:54;;;;;;;16.77;10.40;;;30.40;41.80;;;;;;5010937;28;20047;-61
2022/03/12 10:52:59;;;;;;;12.13;9.50;;;29.60;42.10;;;;;;5010495;28;20045;-61
2022/03/12 10:56:07;;;;;;;11.75;9.25;;;30.00;42.30;;;;;;5011032;28;20500;-61
2022/03/12 10:59:20;;;;;;;14.35;10.65;;;29.20;43.00;;;;;;5011266;28;20504;-61
2022/03/12 11:02:24;;;;;;;12.90;9.75;;;24.50;43.80;;;;;;5010299;28;20045;-61
2022/03/12 11:05:35;;;;;;;15.45;9.75;;;24.70;44.90;;;;;;5011202;28;20047;-62
2022/03/12 11:08:41;;;;;;;16.42;10.40;;;28.40;43.90;;;;;;5010200;28;20397;-61
2022/03/12 11:11:46;;;;;;;13.27;10.70;;;30.00;42.00;;;;;;5010018;28;20504;-62
2022/03/12 11:15:15;;;;;;;15.20;10.40;;;27.50;42.50;;;;;;5010782;28;20078;-61
2022/03/12 11:18:20;;;;;;;13.15;9.70;;;27.60;43.50;;;;;;5011112;28;20052;-62
2022/03/12 11:21:39;;;;;;;16.83;11.18;;;28.60;43.10;;;;;;5009993;28;20492;-61
2022/03/12 11:24:52;;;;;;;14.40;10.13;;;25.50;43.60;;;;;;5011003;28;20053;-60
2022/03/12 11:28:02;;;;;;;14.52;11.25;;;23.20;46.30;;;;;;5010483;28;20053;-60
2022/03/12 11:31:07;;;;;;;;;;;20.80;47.50;;;;;;5010450;28;20057;-60
2022/03/12 11:34:23;;;;;;;14.93;10.68;;;20.40;49.40;;;;;;5010733;28;19910;-60
2022/03/12 11:37:28;;;;;;;14.20;10.65;;;20.90;48.90;;;;;;5010640;28;20061;-61
2022/03/12 11:40:41;;;;;;;13.13;9.45;;;23.10;47.00;;;;;;5009644;28;20504;-61
2022/03/12 11:43:47;;;;;;;17.60;10.60;;;22.50;47.40;;;;;;5010311;28;20049;-61
2022/03/12 11:46:51;;;;;;;15.55;10.27;;;22.20;47.00;;;;;;5010650;28;20049;-60
2022/03/12 11:49:57;;;;;;;15.23;10.80;;;24.40;45.00;;;;;;5010536;28;20500;-61
2022/03/12 11:53:01;;;;;;;17.95;11.55;;;21.90;45.80;;;;;;5010220;28;20049;-60
2022/03/12 11:56:07;;;;;;;14.60;10.52;;;20.50;49.10;;;;;;5010624;28;20057;-61
2022/03/12 11:59:12;;;;;;;18.40;10.93;;;24.20;45.50;;;;;;5010438;28;20383;-61
2022/03/12 12:02:35;;;;;;;13.70;10.52;;;24.90;45.00;;;;;;5009558;28;20057;-60
2022/03/12 12:05:42;;;;;;;12.68;9.20;;;23.80;44.00;;;;;;5010763;28;20045;-61
2022/03/12 12:08:46;;;;;;;14.60;9.30;;;26.20;45.00;;;;;;5010190;28;20044;-62
2022/03/12 12:11:53;;;;;;;11.35;8.98;;;29.40;43.70;;;;;;5009674;28;20053;-62
2022/03/12 12:14:57;;;;;;;12.20;9.35;;;31.50;42.10;;;;;;5009950;28;20110;-62
2022/03/12 12:18:12;;;;;;;16.08;8.75;;;32.70;41.30;;;;;;5010128;28;20532;-62
2022/03/12 12:21:17;;;;;;;15.25;9.07;;;33.60;40.80;;;;;;5012556;28;20053;-62
2022/03/12 12:24:26;;;;;;;11.70;9.18;;;30.80;41.00;;;;;;5014191;28;20037;-61
2022/03/12 12:27:59;;;;;;;11.50;9.27;;;28.40;42.30;;;;;;5014190;28;20061;-61
2022/03/12 12:31:17;;;;;;;15.68;8.95;;;29.30;42.70;;;;;;5013122;28;20058;-61
2022/03/12 12:34:21;;;;;;;14.70;10.38;;;29.90;42.50;;;;;;5014007;28;20061;-61
2022/03/12 12:37:48;;;;;;;11.45;9.35;;;29.00;41.80;;;;;;5013875;28;20052;-61
2022/03/12 12:40:53;;;;;;;12.43;9.98;;;30.50;41.30;;;;;;5013024;28;20401;-61
2022/03/12 12:44:06;;;;;;;12.77;9.30;;;29.00;41.20;;;;;;5013735;28;20500;-61
2022/03/12 12:47:20;;;;;;;13.48;10.10;;;29.80;41.40;;;;;;5013609;28;20045;-60
2022/03/12 12:50:25;;;;;;;13.23;9.65;;;27.60;41.30;;;;;;5012859;28;20041;-61
2022/03/12 12:53:36;;;;;;;15.52;10.68;;;24.90;43.20;;;;;;5014738;28;20045;-61
2022/03/12 12:56:42;;;;;;;12.07;9.48;;;26.30;42.90;;;;;;5019513;28;20061;-61
2022/03/12 12:59:48;;;;;;;12.05;9.43;;;28.30;42.80;;;;;;5016719;28;20484;-62
2022/03/12 13:02:56;;;;;;;11.68;8.48;;;29.30;42.30;;;;;;5019031;28;20049;-62
2022/03/12 13:06:01;;;;;;;20.58;8.18;;;30.40;42.10;;;;;;5024493;28;20488;-61
2022/03/12 13:09:08;;;;;;;12.90;8.65;;;30.20;42.70;;;;;;5025158;28;20032;-61
2022/03/12 13:12:15;;;;;;;14.00;8.77;;;31.40;41.50;;;;;;5015403;28;20052;-61
2022/03/12 13:15:22;;;;;;;14.27;8.45;;;31.70;40.60;;;;;;5016990;28;20496;-61
2022/03/12 13:18:27;;;;;;;11.13;8.77;;;30.50;40.20;;;;;;5024805;28;20056;-61
2022/03/12 13:21:34;;;;;;;12.55;8.77;;;28.80;41.70;;;;;;5021589;28;20046;-60
2022/03/12 13:24:52;;;;;;;12.10;8.55;;;27.60;41.10;;;;;;5024703;28;20045;-61
2022/03/12 13:28:03;;;;;;;10.65;7.63;;;28.30;43.20;;;;;;5029095;28;20048;-62
2022/03/12 13:31:16;;;;;;;10.10;7.00;;;29.50;42.80;;;;;;5030249;28;20049;-61
2022/03/12 13:34:21;;;;;;;10.63;7.28;;;30.00;42.40;;;;;;5025966;28;20084;-61
2022/03/12 13:37:26;;;;;;;10.88;6.68;;;30.50;41.60;;;;;;5031875;28;20048;-61
2022/03/12 13:40:30;;;;;;;10.27;6.85;;;30.80;41.80;;;;;;5033252;28;20476;-61
2022/03/12 13:43:35;;;;;;;7.85;7.00;;;31.00;42.10;;;;;;5026532;28;20037;-61
2022/03/12 13:46:39;;;;;;;10.35;7.13;;;29.40;42.10;;;;;;5026200;28;20507;-61
2022/03/12 13:49:43;;;;;;;9.73;7.43;;;28.80;42.90;;;;;;5028774;28;20056;-60
2022/03/12 13:52:56;;;;;;;12.45;7.80;;;27.40;43.60;;;;;;5030673;28;20055;-61
2022/03/12 13:56:15;;;;;;;10.15;7.20;;;27.20;43.60;;;;;;5028381;28;20051;-60
2022/03/12 13:59:27;;;;;;;9.02;6.70;;;26.80;44.30;;;;;;5032744;28;20514;-61
2022/03/12 14:02:32;;;;;;;;;;;27.00;44.40;;;;;;5031935;28;20044;-61
2022/03/12 14:05:37;;;;;;;9.75;7.05;;;26.70;45.00;;;;;;5019796;28;19913;-60
2022/03/12 14:08:47;;;;;;;8.70;6.95;;;25.70;44.90;;;;;;5028272;28;20040;-60
2022/03/12 14:11:56;;;;;;;10.77;7.45;;;24.90;45.70;;;;;;5027433;28;20057;-61
2022/03/12 14:15:03;;;;;;;12.05;7.78;;;24.40;45.90;;;;;;5028641;28;20048;-61
2022/03/12 14:18:07;;;;;;;11.18;7.80;;;23.50;46.50;;;;;;5029300;28;20049;-60
2022/03/12 14:21:13;;;;;;;10.23;7.35;;;23.50;47.60;;;;;;5012640;28;20049;-60
2022/03/12 14:24:21;;;;;;;12.70;7.32;;;23.70;47.40;;;;;;5019045;28;20041;-61
2022/03/12 14:27:27;;;;;;;19.85;7.10;;;24.10;47.10;;;;;;5000648;28;20049;-61
2022/03/12 14:30:32;;;;;;;10.85;7.32;;;24.30;47.00;;;;;;5012593;28;20041;-60
2022/03/12 14:33:36;;;;;;;10.38;7.15;;;24.60;47.00;;;;;;5011813;28;20061;-61
2022/03/12 14:36:42;;;;;;;12.80;6.78;;;24.10;46.90;;;;;;5012083;28;20053;-60
2022/03/12 14:39:49;;;;;;;12.57;7.28;;;24.00;47.40;;;;;;5011718;28;20057;-61
2022/03/12 14:42:58;;;;;;;12.98;7.30;;;24.30;47.20;;;;;;5010122;28;20049;-61
2022/03/12 14:46:02;;;;;;;15.57;8.45;;;24.10;46.90;;;;;;5011892;28;20408;-61
2022/03/12 14:49:06;;;;;;;11.68;8.45;;;24.00;47.30;;;;;;5011009;28;20040;-61
2022/03/12 14:52:31;;;;;;;10.55;7.70;;;22.40;48.40;;;;;;5009890;28;20045;-60
2022/03/12 14:55:35;;;;;;;12.05;8.00;;;22.30;49.40;;;;;;5011307;28;20053;-61
2022/03/12 14:58:39;;;;;;;14.63;8.45;;;21.80;49.60;;;;;;5011400;28;20053;-61
2022/03/12 15:01:43;;;;;;;12.13;8.20;;;21.50;50.00;;;;;;5010767;28;20049;-60
2022/03/12 15:04:50;;;;;;;12.77;8.27;;;21.10;50.60;;;;;;5010740;28;20037;-60
2022/03/12 15:07:54;;;;;;;14.73;8.45;;;20.90;51.50;;;;;;5011096;28;20037;-60
2022/03/12 15:11:08;;;;;;;13.25;8.02;;;20.40;51.90;;;;;;5010545;28;20049;-61
2022/03/12 15:14:13;;;;;;;14.50;8.65;;;20.20;52.30;;;;;;5010934;28;20036;-61
2022/03/12 15:17:28;;;;;;;12.98;8.60;;;20.00;52.40;;;;;;5011183;28;20052;-60
2022/03/12 15:20:53;;;;;;;13.43;9.32;;;19.50;53.30;;;;;;5010162;28;20053;-64
2022/03/12 15:23:57;;;;;;;11.98;7.88;;;18.90;53.90;;;;;;5010770;28;20061;-63
2022/03/12 15:27:09;;;;;;;16.42;9.15;;;18.40;55.00;;;;;;5010949;28;20049;-62
2022/03/12 15:30:17;;;;;;;12.75;9.10;;;17.80;55.60;;;;;;5010162;28;20060;-63
2022/03/12 15:33:29;;;;;;;14.57;9.15;;;17.40;56.80;;;;;;5010527;28;20392;-62
2022/03/12 15:36:34;;;;;;;;;;;17.10;57.20;;;;;;5010226;28;20053;-62
2022/03/12 15:39:38;;;;;;;11.77;8.07;;;16.80;57.50;;;;;;5010552;28;20387;-62
2022/03/12 15:42:46;;;;;;;16.33;8.30;;;16.80;58.60;;;;;;5010084;28;20037;-62
2022/03/12 15:45:51;;;;;;;13.10;8.18;;;16.90;57.90;;;;;;5010095;28;20043;-62
2022/03/12 15:48:56;;;;;;;12.77;8.90;;;17.00;58.00;;;;;;5010774;28;20045;-62
2022/03/12 15:52:00;;;;;;;14.45;9.20;;;17.00;58.00;;;;;;5009726;28;20057;-63